Time;durP1;ratioP1;P1;durP2;ratioP2;P2;SDS_P1;SDS_P2;PMS_P1;PMS_P2;Temp;Humidity;BMP_temperature;BMP_pressure;BME280_temperature;BME280_humidity;BME280_pressure;Samples;Min_cycle;Max_cycle;Signal;HPM_P1;HPM_P2
2023/08/20 00:03:15;;;;;;;9.65;7.55;;;27.60;92.30;;;;;;9662807;23;20157;-91
2023/08/20 00:07:02;;;;;;;10.40;8.38;;;27.60;92.20;;;;;;9662460;23;20259;-90
2023/08/20 00:10:48;;;;;;;8.13;7.32;;;27.50;92.70;;;;;;9663095;23;20236;-90
2023/08/20 00:14:53;;;;;;;7.85;7.18;;;27.50;92.50;;;;;;9662497;22;20158;-91
2023/08/20 00:18:39;;;;;;;8.68;7.88;;;27.40;92.40;;;;;;9662030;23;20244;-90
2023/08/20 00:22:25;;;;;;;9.75;8.15;;;27.40;92.60;;;;;;9662496;23;20157;-90
2023/08/20 00:26:12;;;;;;;8.30;7.30;;;27.40;92.60;;;;;;9661990;23;20260;-90
2023/08/20 00:29:57;;;;;;;8.50;7.68;;;27.30;92.60;;;;;;9662021;23;20149;-90
2023/08/20 00:33:43;;;;;;;10.60;7.57;;;27.30;92.70;;;;;;9662160;23;20164;-91
2023/08/20 00:37:29;;;;;;;8.60;7.80;;;27.30;92.60;;;;;;9661809;23;20296;-91
2023/08/20 00:41:15;;;;;;;8.68;7.88;;;27.30;92.70;;;;;;9662441;23;20590;-90
2023/08/20 00:45:00;;;;;;;8.90;7.93;;;27.20;92.70;;;;;;9662115;22;20528;-91
2023/08/20 00:48:46;;;;;;;8.82;7.93;;;27.20;92.90;;;;;;9662075;23;20157;-91
2023/08/20 00:52:32;;;;;;;8.30;7.55;;;27.10;93.00;;;;;;9662039;23;20181;-90
2023/08/20 00:56:18;;;;;;;9.25;7.90;;;27.10;93.10;;;;;;9661848;23;20222;-91
2023/08/20 01:00:08;;;;;;;8.90;7.97;;;27.10;93.10;;;;;;9661696;23;20167;-91
2023/08/20 01:03:53;;;;;;;8.82;7.93;;;27.00;93.20;;;;;;9661753;23;20240;-91
2023/08/20 01:08:09;;;;;;;9.82;7.45;;;27.00;93.20;;;;;;9661445;23;20762;-90
2023/08/20 01:12:01;;;;;;;9.07;7.47;;;27.00;93.30;;;;;;9661993;23;20145;-91
2023/08/20 01:15:47;;;;;;;8.32;7.53;;;27.00;93.40;;;;;;9661340;22;20223;-90
2023/08/20 01:19:33;;;;;;;8.05;7.25;;;27.00;93.50;;;;;;9662002;23;20161;-91
2023/08/20 01:23:58;;;;;;;7.50;6.82;;;26.90;93.60;;;;;;9661581;23;20169;-91
2023/08/20 01:27:59;;;;;;;8.35;7.55;;;26.90;93.60;;;;;;9655144;23;20622;-91
2023/08/20 01:31:45;;;;;;;8.07;7.32;;;26.80;93.70;;;;;;9661449;23;20213;-91
2023/08/20 01:35:31;;;;;;;8.20;7.40;;;26.80;93.80;;;;;;9662030;22;20187;-91
2023/08/20 01:39:18;;;;;;;7.63;6.90;;;26.80;93.80;;;;;;9661568;23;20173;-91
2023/08/20 01:43:04;;;;;;;10.35;7.70;;;26.80;94.30;;;;;;9661137;23;20159;-91
2023/08/20 01:46:49;;;;;;;8.05;7.25;;;26.70;93.90;;;;;;9661028;23;20181;-91
2023/08/20 01:50:35;;;;;;;8.30;7.47;;;26.70;94.00;;;;;;9661380;23;20157;-91
2023/08/20 01:54:21;;;;;;;9.90;7.50;;;26.70;94.10;;;;;;9661175;22;20160;-91
2023/08/20 01:58:06;;;;;;;7.72;7.03;;;26.70;94.20;;;;;;9661244;23;20165;-90
2023/08/20 02:01:52;;;;;;;8.40;7.55;;;26.70;94.30;;;;;;9661067;23;20242;-90
2023/08/20 02:05:37;;;;;;;9.55;7.93;;;26.60;94.30;;;;;;9661023;22;20185;-90
2023/08/20 02:09:24;;;;;;;7.65;6.95;;;26.60;94.50;;;;;;9687860;23;20145;-90
2023/08/20 02:13:09;;;;;;;10.90;7.82;;;26.60;94.60;;;;;;9661149;23;20287;-90
2023/08/20 02:16:55;;;;;;;8.52;7.68;;;26.50;94.60;;;;;;9660963;23;20181;-90
2023/08/20 02:20:43;;;;;;;7.97;7.18;;;26.50;94.70;;;;;;9660885;23;20165;-90
2023/08/20 02:24:28;;;;;;;9.07;7.70;;;26.50;94.80;;;;;;9661005;22;20187;-90
2023/08/20 02:28:14;;;;;;;8.60;7.78;;;26.40;94.90;;;;;;9660945;23;20181;-91
2023/08/20 02:32:00;;;;;;;8.07;7.28;;;26.40;95.00;;;;;;9661149;23;20181;-91
2023/08/20 02:35:46;;;;;;;8.40;7.47;;;26.40;95.10;;;;;;9660767;22;20173;-90
2023/08/20 02:39:32;;;;;;;11.32;8.07;;;26.40;95.20;;;;;;9661650;23;20690;-91
2023/08/20 02:43:17;;;;;;;8.43;7.63;;;26.30;95.30;;;;;;9663991;23;20536;-91
2023/08/20 02:47:03;;;;;;;8.10;7.30;;;26.30;95.30;;;;;;9663565;23;20186;-90
2023/08/20 02:50:49;;;;;;;12.48;7.63;;;26.30;95.40;;;;;;9663714;23;20157;-90
2023/08/20 02:54:34;;;;;;;8.52;7.28;;;26.30;95.50;;;;;;9663656;22;20590;-90
2023/08/20 02:58:20;;;;;;;8.60;7.70;;;26.20;95.50;;;;;;9663632;23;20203;-91
2023/08/20 03:02:05;;;;;;;8.63;7.72;;;26.20;95.60;;;;;;9664278;23;20594;-91
2023/08/20 03:05:51;;;;;;;8.30;7.53;;;26.20;95.70;;;;;;9663227;22;20181;-90
2023/08/20 03:09:37;;;;;;;11.85;7.80;;;26.20;95.80;;;;;;9663845;23;20561;-91
2023/08/20 03:13:22;;;;;;;9.48;7.90;;;26.10;95.90;;;;;;9663708;23;20154;-90
2023/08/20 03:17:08;;;;;;;8.70;7.80;;;26.10;95.90;;;;;;9663270;23;20212;-91
2023/08/20 03:20:57;;;;;;;9.23;7.70;;;26.10;96.00;;;;;;9663415;23;20161;-90
2023/08/20 03:24:42;;;;;;;8.02;7.30;;;26.00;96.00;;;;;;9663318;22;20629;-91
2023/08/20 03:28:28;;;;;;;8.27;7.47;;;26.00;96.10;;;;;;9664151;23;20586;-89
2023/08/20 03:32:13;;;;;;;8.65;7.75;;;26.00;96.20;;;;;;9664544;23;20161;-90
2023/08/20 03:35:59;;;;;;;10.45;7.45;;;26.00;96.20;;;;;;9663891;22;20239;-90
2023/08/20 03:39:45;;;;;;;10.32;7.28;;;25.90;96.20;;;;;;9664138;23;20176;-89
2023/08/20 03:43:30;;;;;;;9.27;7.60;;;25.80;96.30;;;;;;9663903;23;20168;-90
2023/08/20 03:47:19;;;;;;;13.35;8.18;;;25.70;96.20;;;;;;9663827;23;20189;-90
2023/08/20 03:51:05;;;;;;;7.93;7.13;;;25.60;96.10;;;;;;9663370;23;20200;-90
2023/08/20 03:54:51;;;;;;;8.52;7.60;;;25.50;96.50;;;;;;9663723;22;20173;-90
2023/08/20 03:58:36;;;;;;;7.90;6.95;;;25.50;96.80;;;;;;9664141;23;20226;-90
2023/08/20 04:02:23;;;;;;;10.02;7.63;;;25.50;96.80;;;;;;9663656;23;20168;-90
2023/08/20 04:06:09;;;;;;;12.10;7.82;;;25.50;96.90;;;;;;9663707;23;20270;-91
2023/08/20 04:09:55;;;;;;;9.95;8.02;;;25.40;97.20;;;;;;9663484;23;20164;-90
2023/08/20 04:13:42;;;;;;;12.70;8.18;;;25.30;97.50;;;;;;9663706;23;20838;-90
2023/08/20 04:17:28;;;;;;;10.27;8.93;;;25.30;97.60;;;;;;9663338;23;20250;-90
2023/08/20 04:21:14;;;;;;;9.90;8.38;;;25.20;97.90;;;;;;9663320;23;20161;-90
2023/08/20 04:24:59;;;;;;;11.88;9.00;;;25.10;98.10;;;;;;9663142;22;20189;-90
2023/08/20 04:28:45;;;;;;;12.30;8.93;;;25.00;98.50;;;;;;9663331;23;20149;-90
2023/08/20 04:32:30;;;;;;;12.43;9.07;;;25.00;98.90;;;;;;9663195;23;20566;-89
2023/08/20 04:36:16;;;;;;;12.77;9.18;;;25.00;99.10;;;;;;9662934;23;20504;-89
2023/08/20 04:40:05;;;;;;;9.57;8.60;;;24.80;99.40;;;;;;9663010;23;20175;-90
2023/08/20 04:43:51;;;;;;;10.25;8.18;;;25.00;99.50;;;;;;9663114;23;20613;-89
2023/08/20 04:47:37;;;;;;;13.32;9.48;;;24.90;99.90;;;;;;9663194;23;20590;-91
2023/08/20 04:51:23;;;;;;;16.10;10.48;;;24.80;99.90;;;;;;9663521;23;20165;-91
2023/08/20 04:55:09;;;;;;;12.23;9.02;;;24.80;99.90;;;;;;9663373;22;20173;-90
2023/08/20 04:58:54;;;;;;;13.50;10.15;;;24.70;99.90;;;;;;9663003;23;20157;-90
2023/08/20 05:02:40;;;;;;;10.32;8.95;;;24.70;99.90;;;;;;9662659;23;20687;-91
2023/08/20 05:06:25;;;;;;;10.60;8.95;;;24.60;99.90;;;;;;9662869;23;20210;-90
2023/08/20 05:10:11;;;;;;;11.50;9.30;;;24.60;99.90;;;;;;9662781;23;20516;-90
2023/08/20 05:13:57;;;;;;;11.75;9.90;;;24.70;99.90;;;;;;9662754;23;20161;-90
2023/08/20 05:17:42;;;;;;;14.98;9.68;;;24.70;99.90;;;;;;9662682;23;20189;-90
2023/08/20 05:21:28;;;;;;;10.63;8.73;;;24.70;99.90;;;;;;9663012;23;20319;-90
2023/08/20 05:25:13;;;;;;;11.40;9.60;;;24.80;99.90;;;;;;9662725;22;20594;-90
2023/08/20 05:29:03;;;;;;;12.27;9.60;;;24.80;99.90;;;;;;9662394;23;20159;-90
2023/08/20 05:32:55;;;;;;;9.57;8.50;;;24.90;99.90;;;;;;9662479;23;20715;-90
2023/08/20 05:36:40;;;;;;;9.18;8.27;;;25.00;99.90;;;;;;9662542;23;20739;-90
2023/08/20 05:40:26;;;;;;;13.18;9.75;;;25.00;99.90;;;;;;9662607;23;20175;-90
2023/08/20 05:44:12;;;;;;;10.95;9.57;;;25.00;99.90;;;;;;9662758;23;20188;-90
2023/08/20 05:47:57;;;;;;;11.68;8.88;;;25.00;99.90;;;;;;9663071;23;20694;-91
2023/08/20 05:51:43;;;;;;;18.05;9.80;;;25.00;99.90;;;;;;9689356;23;20150;-91
2023/08/20 05:55:29;;;;;;;15.88;9.32;;;25.00;99.90;;;;;;9662220;22;20591;-91
2023/08/20 05:59:15;;;;;;;15.00;9.75;;;25.00;99.90;;;;;;9661797;23;20183;-89
2023/08/20 06:03:00;;;;;;;11.00;8.98;;;24.80;99.90;;;;;;9662412;23;20574;-90
2023/08/20 06:06:46;;;;;;;10.65;8.93;;;24.80;99.90;;;;;;9662104;23;20235;-90
2023/08/20 06:10:31;;;;;;;11.30;8.48;;;24.70;99.90;;;;;;9662436;23;20157;-90
2023/08/20 06:14:24;;;;;;;11.00;9.13;;;24.80;99.90;;;;;;9662643;23;20161;-90
2023/08/20 06:18:10;;;;;;;13.95;9.57;;;24.80;99.90;;;;;;9665144;23;20154;-91
2023/08/20 06:21:55;;;;;;;9.82;8.82;;;24.90;99.90;;;;;;9665275;23;20161;-90
2023/08/20 06:25:41;;;;;;;16.05;9.63;;;24.90;99.90;;;;;;9665223;22;20221;-90
2023/08/20 06:29:27;;;;;;;12.95;9.55;;;24.90;99.90;;;;;;9665050;23;20161;-90
2023/08/20 06:33:12;;;;;;;11.38;8.35;;;24.80;99.90;;;;;;9665076;23;20267;-90
2023/08/20 06:36:58;;;;;;;13.93;9.82;;;24.70;99.90;;;;;;9664956;23;20633;-91
2023/08/20 06:40:43;;;;;;;10.13;8.55;;;24.80;99.90;;;;;;9665313;23;20208;-90
2023/08/20 06:44:35;;;;;;;13.95;9.75;;;24.80;99.90;;;;;;9664912;22;20172;-91
2023/08/20 06:48:23;;;;;;;10.13;9.07;;;24.90;99.90;;;;;;9664729;23;20173;-91
2023/08/20 06:52:10;;;;;;;9.13;8.18;;;24.80;99.90;;;;;;9664756;23;20157;-90
2023/08/20 06:55:56;;;;;;;11.85;10.55;;;24.80;99.90;;;;;;9664728;22;20204;-90
2023/08/20 06:59:43;;;;;;;9.32;8.32;;;24.90;99.90;;;;;;9664666;23;20157;-90
2023/08/20 07:03:29;;;;;;;11.10;10.00;;;24.80;99.90;;;;;;9665405;23;20157;-92
2023/08/20 07:07:14;;;;;;;10.63;8.95;;;24.90;99.90;;;;;;9664932;23;20208;-90
2023/08/20 07:11:00;;;;;;;9.70;8.13;;;24.90;99.90;;;;;;9664606;23;20160;-91
2023/08/20 07:14:46;;;;;;;12.55;10.48;;;24.90;99.90;;;;;;9664542;22;20177;-90
2023/08/20 07:18:38;;;;;;;12.00;9.30;;;25.00;99.90;;;;;;9666417;23;20161;-90
2023/08/20 07:22:23;;;;;;;15.57;9.30;;;25.00;99.90;;;;;;9666652;23;20603;-91
2023/08/20 07:26:11;;;;;;;11.40;9.52;;;25.10;99.90;;;;;;9666485;23;20550;-90
2023/08/20 07:29:57;;;;;;;15.93;10.20;;;25.10;99.90;;;;;;9666497;23;20158;-89
2023/08/20 07:33:47;;;;;;;12.43;9.35;;;25.00;99.90;;;;;;9666084;23;20165;-89
2023/08/20 07:37:33;;;;;;;14.70;10.20;;;25.10;99.90;;;;;;9666893;23;20720;-89
2023/08/20 07:41:22;;;;;;;15.00;11.00;;;25.10;99.90;;;;;;9666530;23;20483;-91
2023/08/20 07:45:08;;;;;;;12.98;11.27;;;25.10;99.90;;;;;;9666288;22;20184;-90
2023/08/20 07:48:54;;;;;;;16.55;9.75;;;25.00;99.90;;;;;;9665892;23;20157;-92
2023/08/20 07:52:40;;;;;;;14.50;9.88;;;25.00;99.90;;;;;;9665465;23;20168;-91
2023/08/20 07:56:26;;;;;;;14.32;10.85;;;25.30;99.90;;;;;;9664743;23;20177;-91
2023/08/20 08:00:13;;;;;;;17.33;11.10;;;25.50;99.90;;;;;;9665125;23;20659;-90
2023/08/20 08:03:58;;;;;;;12.38;9.98;;;25.50;99.90;;;;;;9665291;23;20161;-90
2023/08/20 08:07:44;;;;;;;13.27;10.32;;;25.70;99.90;;;;;;9665295;23;20181;-91
2023/08/20 08:11:45;;;;;;;15.90;11.60;;;25.70;99.90;;;;;;9665445;23;20549;-90
2023/08/20 08:15:31;;;;;;;12.98;10.50;;;25.70;99.90;;;;;;9665222;22;20204;-90
2023/08/20 08:19:17;;;;;;;11.82;10.63;;;25.90;99.90;;;;;;9665414;23;20161;-91
2023/08/20 08:23:03;;;;;;;13.75;10.73;;;25.90;99.90;;;;;;9665606;23;20635;-90
2023/08/20 08:26:49;;;;;;;13.77;10.20;;;25.90;99.90;;;;;;9665030;23;20506;-90
2023/08/20 08:30:34;;;;;;;16.25;10.75;;;26.00;99.90;;;;;;9665173;23;20165;-91
2023/08/20 08:34:21;;;;;;;15.82;10.75;;;26.00;99.90;;;;;;9664990;23;20161;-92
2023/08/20 08:38:06;;;;;;;18.85;11.23;;;26.00;99.90;;;;;;9664303;23;20170;-91
2023/08/20 08:42:00;;;;;;;11.68;10.48;;;26.20;99.90;;;;;;9664855;23;20609;-91
2023/08/20 08:45:50;;;;;;;11.60;9.70;;;26.30;99.90;;;;;;9665150;22;20184;-91
2023/08/20 08:49:35;;;;;;;17.50;10.45;;;26.50;99.90;;;;;;9664456;23;20625;-91
2023/08/20 08:54:00;;;;;;;11.75;9.70;;;26.50;99.90;;;;;;9691998;23;20524;-91
2023/08/20 08:57:45;;;;;;;14.38;10.65;;;26.70;99.90;;;;;;9663571;23;20184;-91
2023/08/20 09:01:31;;;;;;;11.85;10.18;;;26.70;99.90;;;;;;9664152;23;20244;-91
2023/08/20 09:05:17;;;;;;;11.88;9.20;;;26.60;99.90;;;;;;9663682;22;20640;-89
2023/08/20 09:09:06;;;;;;;12.77;9.55;;;26.60;99.90;;;;;;9664023;23;20224;-90
2023/08/20 09:12:55;;;;;;;11.25;9.88;;;26.60;99.90;;;;;;9665256;23;20153;-92
2023/08/20 09:16:41;;;;;;;15.90;9.60;;;26.60;99.90;;;;;;9663664;23;20702;-92
2023/08/20 09:20:37;;;;;;;12.23;9.50;;;26.70;99.90;;;;;;9663869;23;20477;-92
2023/08/20 09:24:36;;;;;;;9.38;7.95;;;26.80;99.90;;;;;;9663337;22;20546;-92
2023/08/20 09:28:22;;;;;;;11.43;9.23;;;26.80;99.90;;;;;;9663020;23;20169;-91
2023/08/20 09:32:08;;;;;;;12.95;9.35;;;27.00;99.90;;;;;;9661572;23;20187;-91
2023/08/20 09:35:53;;;;;;;10.80;9.65;;;27.10;99.90;;;;;;9661414;22;20181;-91
2023/08/20 09:39:40;;;;;;;13.23;9.13;;;27.30;99.90;;;;;;9661762;23;20217;-92
2023/08/20 09:43:30;;;;;;;12.85;9.52;;;27.50;99.90;;;;;;9662099;23;20164;-92
2023/08/20 09:47:16;;;;;;;13.63;10.38;;;27.30;99.90;;;;;;9661987;23;20269;-92
2023/08/20 09:51:08;;;;;;;15.40;11.32;;;27.20;99.90;;;;;;9662388;23;20154;-93
2023/08/20 09:55:10;;;;;;;12.48;11.15;;;27.30;99.90;;;;;;9661475;22;20225;-90
2023/08/20 09:59:00;;;;;;;14.90;10.52;;;27.40;99.90;;;;;;9661575;23;20480;-91
2023/08/20 10:02:48;;;;;;;11.95;10.70;;;27.50;99.90;;;;;;9660856;23;20149;-91
2023/08/20 10:06:35;;;;;;;11.38;10.10;;;27.60;99.90;;;;;;9661359;23;20238;-90
2023/08/20 10:10:21;;;;;;;13.35;10.10;;;27.60;99.90;;;;;;9661159;23;20153;-90
2023/08/20 10:14:08;;;;;;;10.68;9.38;;;27.70;99.90;;;;;;9661157;23;20163;-89
2023/08/20 10:17:56;;;;;;;13.25;9.88;;;27.70;99.90;;;;;;9660275;23;20184;-91
2023/08/20 10:21:46;;;;;;;12.23;10.35;;;27.70;99.90;;;;;;9660750;23;20385;-91
2023/08/20 10:25:39;;;;;;;14.18;10.35;;;27.80;99.90;;;;;;9660599;22;20181;-91
2023/08/20 10:29:40;;;;;;;11.75;10.20;;;27.80;99.90;;;;;;9660573;23;20153;-91
2023/08/20 10:33:26;;;;;;;11.20;10.10;;;28.00;99.90;;;;;;9660229;23;20149;-91
2023/08/20 10:37:15;;;;;;;14.23;10.10;;;28.10;99.90;;;;;;9660368;23;20197;-91
2023/08/20 10:41:01;;;;;;;14.98;10.32;;;28.10;99.90;;;;;;9660803;23;20157;-90
2023/08/20 10:44:58;;;;;;;11.63;9.32;;;28.20;99.90;;;;;;9659186;22;20188;-91
2023/08/20 10:48:56;;;;;;;10.18;8.88;;;28.20;99.90;;;;;;9660461;23;20180;-89
2023/08/20 10:52:54;;;;;;;10.63;8.98;;;28.40;99.90;;;;;;9659959;23;20153;-90
2023/08/20 10:56:44;;;;;;;13.18;8.25;;;28.60;99.90;;;;;;9659429;23;20177;-92
2023/08/20 11:00:32;;;;;;;10.60;8.65;;;28.70;99.90;;;;;;9660588;23;20207;-92
2023/08/20 11:04:20;;;;;;;11.20;8.68;;;28.80;99.90;;;;;;9662536;23;20558;-90
2023/08/20 11:08:07;;;;;;;15.63;9.10;;;28.90;99.90;;;;;;9662905;23;20181;-91
2023/08/20 11:11:53;;;;;;;10.25;8.77;;;29.00;99.90;;;;;;9663926;23;20160;-92
2023/08/20 11:15:39;;;;;;;9.38;8.38;;;29.00;99.90;;;;;;9664290;22;20177;-92
2023/08/20 11:19:25;;;;;;;9.57;8.30;;;29.00;99.90;;;;;;9662846;23;20176;-91
2023/08/20 11:23:12;;;;;;;10.30;9.05;;;29.00;99.90;;;;;;9665675;23;20153;-92
2023/08/20 11:27:11;;;;;;;11.75;8.93;;;29.10;99.90;;;;;;9665793;23;20323;-91
2023/08/20 11:30:57;;;;;;;9.57;8.52;;;29.10;99.90;;;;;;9666490;23;20232;-91
2023/08/20 11:34:43;;;;;;;10.50;8.80;;;29.10;99.90;;;;;;9665976;22;20177;-90
2023/08/20 11:38:32;;;;;;;9.20;8.25;;;29.20;99.90;;;;;;9665328;23;20183;-92
2023/08/20 11:42:18;;;;;;;238.57;176.52;;;29.30;99.90;;;;;;9665403;23;20158;-92
2023/08/20 11:46:04;;;;;;;21.83;15.10;;;29.30;99.50;;;;;;9664006;22;20213;-90
2023/08/20 11:50:35;;;;;;;13.95;8.32;;;29.30;99.60;;;;;;9664533;23;20150;-90
2023/08/20 11:54:22;;;;;;;8.68;7.35;;;29.40;99.70;;;;;;9664051;23;20157;-90
2023/08/20 11:58:14;;;;;;;7.75;6.70;;;29.50;99.20;;;;;;9664219;23;20181;-90
2023/08/20 12:02:09;;;;;;;10.05;7.65;;;29.50;98.40;;;;;;9664260;23;20531;-90
2023/08/20 12:05:55;;;;;;;8.93;6.88;;;29.60;98.50;;;;;;9665394;22;20503;-91
2023/08/20 12:09:41;;;;;;;7.05;6.38;;;29.70;97.30;;;;;;9664443;23;20535;-90
2023/08/20 12:13:27;;;;;;;8.60;6.93;;;29.70;96.20;;;;;;9663954;23;20601;-90
2023/08/20 12:17:18;;;;;;;10.02;7.60;;;29.70;95.90;;;;;;9663967;23;20272;-90
2023/08/20 12:21:03;;;;;;;7.28;6.28;;;29.80;96.20;;;;;;9664606;23;20150;-90
2023/08/20 12:24:51;;;;;;;9.93;6.93;;;29.80;94.90;;;;;;9664287;22;20181;-93
2023/08/20 12:29:04;;;;;;;7.35;6.65;;;29.80;95.80;;;;;;9664211;23;20184;-92
2023/08/20 12:32:50;;;;;;;8.70;6.97;;;30.00;95.40;;;;;;9665120;23;20149;-92
2023/08/20 12:36:36;;;;;;;8.38;6.63;;;30.10;95.20;;;;;;9664740;23;20204;-90
2023/08/20 12:40:21;;;;;;;8.02;6.28;;;30.20;95.70;;;;;;9664426;23;20544;-92
2023/08/20 12:44:13;;;;;;;8.23;6.88;;;30.20;95.40;;;;;;9664732;23;20153;-90
2023/08/20 12:47:59;;;;;;;12.43;7.20;;;30.20;96.10;;;;;;9664139;23;20521;-91
2023/08/20 12:51:44;;;;;;;10.52;7.53;;;30.20;95.90;;;;;;9664548;23;20187;-90
2023/08/20 12:55:30;;;;;;;9.82;6.90;;;30.30;94.40;;;;;;9664670;22;20192;-90
2023/08/20 12:59:16;;;;;;;9.75;6.65;;;30.20;94.00;;;;;;9664441;23;20243;-90
2023/08/20 13:03:02;;;;;;;9.65;6.80;;;30.20;93.80;;;;;;9663720;23;20612;-90
2023/08/20 13:06:47;;;;;;;8.73;6.97;;;30.30;95.10;;;;;;9663745;23;20660;-91
2023/08/20 13:10:33;;;;;;;8.40;7.10;;;30.50;94.00;;;;;;9663645;23;20601;-91
2023/08/20 13:14:19;;;;;;;8.80;7.03;;;30.50;93.00;;;;;;9663316;23;20160;-91
2023/08/20 13:18:07;;;;;;;8.45;6.93;;;30.40;93.70;;;;;;9663200;23;20177;-91
2023/08/20 13:21:53;;;;;;;9.55;7.13;;;30.40;93.60;;;;;;9663221;23;20176;-90
2023/08/20 13:26:06;;;;;;;8.05;6.85;;;30.50;94.60;;;;;;9662853;22;20193;-91
2023/08/20 13:29:53;;;;;;;7.82;6.88;;;30.50;93.40;;;;;;9663037;23;20146;-90
2023/08/20 13:33:39;;;;;;;8.60;6.70;;;30.60;94.10;;;;;;9662619;23;20153;-90
2023/08/20 13:37:25;;;;;;;9.68;6.65;;;30.60;93.20;;;;;;9662832;23;20246;-91
2023/08/20 13:42:01;;;;;;;7.88;7.10;;;30.60;93.40;;;;;;9662937;23;20165;-91
2023/08/20 13:45:46;;;;;;;10.13;6.70;;;30.60;93.40;;;;;;9662646;22;20582;-90
2023/08/20 13:49:32;;;;;;;7.78;6.65;;;30.70;93.00;;;;;;9662901;23;20157;-91
2023/08/20 13:53:17;;;;;;;9.45;6.28;;;30.70;92.90;;;;;;9662852;23;20153;-91
2023/08/20 13:57:04;;;;;;;8.95;6.05;;;30.80;93.50;;;;;;9662384;23;20184;-91
2023/08/20 14:00:49;;;;;;;9.00;6.65;;;30.70;92.70;;;;;;9662966;23;20161;-91
2023/08/20 14:04:35;;;;;;;8.13;7.30;;;30.80;93.10;;;;;;9662683;22;20161;-91
2023/08/20 14:08:22;;;;;;;9.95;5.97;;;30.90;91.10;;;;;;9662406;23;20177;-92
2023/08/20 14:12:07;;;;;;;10.95;7.05;;;30.90;92.20;;;;;;9662755;23;20207;-90
2023/08/20 14:15:53;;;;;;;7.78;6.40;;;31.00;92.80;;;;;;9663175;22;20227;-91
2023/08/20 14:19:38;;;;;;;7.40;6.03;;;31.10;90.50;;;;;;9662676;23;20488;-91
2023/08/20 14:23:24;;;;;;;9.02;6.28;;;31.10;90.90;;;;;;9662826;23;20180;-91
2023/08/20 14:27:12;;;;;;;6.57;5.88;;;31.20;90.40;;;;;;9663242;23;20265;-94
2023/08/20 14:31:03;;;;;;;7.78;6.18;;;31.20;90.20;;;;;;9663035;23;20176;-90
2023/08/20 14:34:48;;;;;;;7.72;6.32;;;31.20;90.30;;;;;;9663123;22;20173;-91
2023/08/20 14:38:34;;;;;;;8.82;6.45;;;31.10;89.10;;;;;;9665716;23;20180;-91
2023/08/20 14:42:19;;;;;;;9.82;6.57;;;31.20;90.50;;;;;;9665712;23;20167;-90
2023/08/20 14:46:05;;;;;;;7.10;6.40;;;31.20;90.20;;;;;;9665581;22;20181;-90
2023/08/20 14:49:52;;;;;;;7.78;6.97;;;31.30;90.20;;;;;;9665461;23;20187;-91
2023/08/20 14:53:37;;;;;;;10.52;6.07;;;31.30;89.20;;;;;;9665212;23;20157;-91
2023/08/20 14:57:23;;;;;;;14.80;6.18;;;31.30;88.70;;;;;;9665278;23;20184;-90
2023/08/20 15:01:08;;;;;;;7.07;6.32;;;31.20;87.90;;;;;;9665409;23;20231;-90
2023/08/20 15:04:54;;;;;;;8.00;6.07;;;31.20;88.50;;;;;;9665137;22;20175;-91
2023/08/20 15:08:40;;;;;;;6.53;5.93;;;31.20;90.00;;;;;;9665957;23;21046;-91
2023/08/20 15:12:25;;;;;;;9.38;6.43;;;31.30;90.50;;;;;;9665123;23;20154;-91
2023/08/20 15:16:11;;;;;;;11.90;6.00;;;31.30;89.40;;;;;;9665539;23;20246;-91
2023/08/20 15:19:56;;;;;;;7.35;5.75;;;31.40;89.10;;;;;;9664864;23;20494;-91
2023/08/20 15:23:42;;;;;;;8.30;6.65;;;31.40;87.80;;;;;;9664807;23;20520;-91
2023/08/20 15:27:28;;;;;;;8.70;6.40;;;31.40;87.70;;;;;;9665141;23;20185;-91
2023/08/20 15:31:14;;;;;;;6.60;6.00;;;31.30;87.80;;;;;;9664952;23;20639;-92
2023/08/20 15:35:00;;;;;;;9.43;6.13;;;31.30;88.60;;;;;;9665625;22;20679;-92
2023/08/20 15:38:47;;;;;;;6.60;5.88;;;31.30;87.80;;;;;;9664939;23;20199;-93
2023/08/20 15:42:33;;;;;;;7.07;5.78;;;31.40;89.50;;;;;;9665739;23;20161;-92
2023/08/20 15:46:19;;;;;;;8.43;6.30;;;31.40;89.20;;;;;;9665663;23;20181;-91
2023/08/20 15:50:06;;;;;;;9.27;6.88;;;31.40;87.90;;;;;;9664067;23;20189;-93
2023/08/20 15:53:51;;;;;;;8.45;6.07;;;31.40;88.70;;;;;;9667580;23;20157;-91
2023/08/20 15:57:37;;;;;;;6.05;5.55;;;31.50;88.90;;;;;;9664140;23;20181;-91
2023/08/20 16:01:24;;;;;;;7.07;5.65;;;31.60;90.10;;;;;;9664551;23;20246;-93
2023/08/20 16:05:10;;;;;;;6.03;5.53;;;31.70;90.60;;;;;;9670622;22;20181;-92
2023/08/20 16:08:58;;;;;;;8.52;6.15;;;31.70;90.90;;;;;;9664637;23;20188;-92
2023/08/20 16:12:44;;;;;;;8.55;6.30;;;31.80;90.60;;;;;;9666288;23;20176;-93
2023/08/20 16:16:29;;;;;;;6.57;6.00;;;31.80;88.80;;;;;;9663752;23;20180;-92
2023/08/20 16:20:15;;;;;;;6.63;5.82;;;31.70;90.00;;;;;;9664234;23;20157;-93
2023/08/20 16:24:01;;;;;;;7.10;5.82;;;31.80;90.40;;;;;;9663922;23;20161;-93
2023/08/20 16:27:47;;;;;;;12.05;6.13;;;31.80;90.60;;;;;;9663781;23;20648;-92
2023/08/20 16:31:32;;;;;;;7.50;5.10;;;31.80;88.60;;;;;;9664298;23;20164;-92
2023/08/20 16:35:23;;;;;;;5.10;4.60;;;31.50;84.90;;;;;;9663971;22;20177;-92
2023/08/20 16:39:08;;;;;;;5.18;3.92;;;31.30;86.20;;;;;;9689509;23;20485;-91
2023/08/20 16:42:59;;;;;;;5.45;4.60;;;31.30;85.80;;;;;;9662384;23;20201;-92
2023/08/20 16:46:44;;;;;;;6.32;4.20;;;31.10;84.70;;;;;;9662657;23;20239;-93
2023/08/20 16:50:30;;;;;;;6.72;4.20;;;30.90;85.00;;;;;;9662586;23;20242;-93
2023/08/20 16:54:16;;;;;;;5.38;4.50;;;31.00;86.20;;;;;;9688264;23;20146;-90
2023/08/20 16:58:02;;;;;;;5.78;4.40;;;30.90;84.80;;;;;;9660705;23;20188;-92
2023/08/20 17:01:47;;;;;;;14.20;4.65;;;30.90;84.60;;;;;;9664938;23;20274;-91
2023/08/20 17:05:39;;;;;;;5.70;4.40;;;30.80;85.40;;;;;;9663676;22;20190;-92
2023/08/20 17:09:25;;;;;;;6.28;4.07;;;30.80;86.10;;;;;;9661597;23;20177;-90
2023/08/20 17:13:11;;;;;;;4.10;3.70;;;30.80;85.30;;;;;;9661951;23;20165;-90
2023/08/20 17:17:00;;;;;;;3.90;3.40;;;30.70;85.80;;;;;;9661160;23;20215;-91
2023/08/20 17:20:48;;;;;;;4.47;4.07;;;30.80;86.50;;;;;;9661546;23;20648;-92
2023/08/20 17:24:34;;;;;;;4.28;3.85;;;30.90;88.10;;;;;;9661976;22;20164;-92
2023/08/20 17:28:19;;;;;;;5.10;3.70;;;31.00;87.10;;;;;;9661784;23;20177;-92
2023/08/20 17:32:06;;;;;;;4.40;4.00;;;30.90;86.30;;;;;;9661505;23;20613;-91
2023/08/20 17:35:51;;;;;;;10.80;3.95;;;30.90;86.40;;;;;;9660990;22;20181;-90
2023/08/20 17:39:38;;;;;;;4.93;3.55;;;30.80;84.00;;;;;;9661451;23;20738;-91
2023/08/20 17:43:24;;;;;;;3.80;3.22;;;30.60;84.70;;;;;;9661676;23;20156;-91
2023/08/20 17:47:09;;;;;;;4.30;3.13;;;30.50;83.20;;;;;;9661213;23;20177;-91
2023/08/20 17:50:55;;;;;;;4.60;3.17;;;30.40;84.70;;;;;;9662690;23;20153;-92
2023/08/20 17:54:41;;;;;;;4.35;3.10;;;30.40;85.90;;;;;;9662191;22;20531;-91
2023/08/20 17:58:27;;;;;;;3.50;3.03;;;30.50;86.70;;;;;;9662214;23;20232;-91
2023/08/20 18:02:13;;;;;;;4.28;3.40;;;30.60;87.80;;;;;;9664918;23;20157;-91
2023/08/20 18:06:01;;;;;;;7.97;3.45;;;30.70;87.70;;;;;;9665281;22;20215;-92
2023/08/20 18:09:47;;;;;;;4.22;3.20;;;30.80;89.10;;;;;;9660422;23;20555;-92
2023/08/20 18:13:41;;;;;;;3.33;3.03;;;30.80;89.30;;;;;;9663707;23;20500;-90
2023/08/20 18:17:30;;;;;;;4.47;3.10;;;30.90;90.20;;;;;;9664229;23;20553;-91
2023/08/20 18:21:15;;;;;;;3.17;2.90;;;30.90;90.50;;;;;;9665181;23;20206;-91
2023/08/20 18:25:01;;;;;;;6.07;3.33;;;30.90;90.70;;;;;;9665016;22;20181;-92
2023/08/20 18:28:47;;;;;;;3.10;2.90;;;30.90;90.50;;;;;;9691206;23;20172;-92
2023/08/20 18:32:35;;;;;;;4.35;3.03;;;30.80;90.70;;;;;;9663603;23;20176;-92
2023/08/20 18:36:21;;;;;;;4.07;3.47;;;30.80;90.90;;;;;;9663524;23;20247;-91
2023/08/20 18:40:09;;;;;;;4.13;3.30;;;30.80;91.00;;;;;;9662513;23;20157;-92
2023/08/20 18:43:55;;;;;;;4.80;3.35;;;30.70;91.00;;;;;;9690389;23;20238;-91
2023/08/20 18:47:40;;;;;;;4.25;2.97;;;30.70;91.00;;;;;;9639354;23;20193;-90
2023/08/20 18:51:26;;;;;;;4.00;3.05;;;30.60;91.10;;;;;;9663897;23;20564;-91
2023/08/20 18:55:12;;;;;;;3.70;3.30;;;30.60;91.10;;;;;;9663163;22;20173;-92
2023/08/20 18:58:58;;;;;;;4.75;3.88;;;30.50;91.20;;;;;;9664148;23;20153;-91
2023/08/20 19:02:43;;;;;;;4.20;3.50;;;30.50;91.30;;;;;;9664175;23;20551;-92
2023/08/20 19:06:30;;;;;;;4.03;3.38;;;30.40;91.80;;;;;;9663227;23;20193;-91
2023/08/20 19:10:17;;;;;;;4.07;3.45;;;30.40;91.40;;;;;;9662810;23;20654;-90
2023/08/20 19:14:03;;;;;;;4.22;3.47;;;30.30;91.50;;;;;;9690127;23;20141;-92
2023/08/20 19:17:49;;;;;;;4.82;3.40;;;30.30;91.00;;;;;;9663419;23;20181;-92
2023/08/20 19:21:35;;;;;;;10.88;4.00;;;30.30;91.60;;;;;;9662044;23;20172;-89
2023/08/20 19:25:23;;;;;;;4.22;3.70;;;30.20;91.60;;;;;;9661834;22;20204;-92
2023/08/20 19:29:08;;;;;;;8.20;3.70;;;30.20;91.60;;;;;;9663042;23;20259;-92
2023/08/20 19:32:55;;;;;;;4.28;3.78;;;30.10;91.80;;;;;;9689177;23;20160;-89
2023/08/20 19:36:41;;;;;;;5.75;4.15;;;30.10;91.90;;;;;;9661668;23;20401;-90